Terminal Aerodrome Forecast
Issued by NWS Shreveport, LA

Home | Current Version | Previous Version | Text Only | Print | Product List | Glossary On
Versions: 1 2 3 4 5 6 7 8 9 10 11 12 13 14 15 16 17
000
FTUS44 KSHV 271253 AAA
TAFGGG
TAF AMD
KGGG 271253Z 2713/2812 VRB03KT P6SM SCT003 SCT040 BKN150
      TEMPO 2713/2715 4SM BR BKN003
     FM271500 08004KT P6SM SCT010 BKN150
      TEMPO 2715/2717 BKN010
     FM271700 10005KT P6SM SCT020 BKN030
     FM271900 10006KT P6SM BKN035
     FM280100 12003KT P6SM SCT045 SCT120 BKN250
     FM280600 07003KT P6SM SCT045 BKN110 OVC250=

USA.gov is the U.S. government's official web portal to all federal, state and local government web resources and services.